TimeEST,TemperatureF,Dew PointF,Humidity,Sea Level PressureIn,VisibilityMPH,Wind Direction,Wind SpeedMPH,Gust SpeedMPH,PrecipitationIn,Events,Conditions,WindDirDegrees,DateUTC
12:53 AM,60.8,50.0,68,29.94,10.0,WNW,8.1,-,N/A,,Mostly Cloudy,300,2013-03-01 05:53:00
1:53 AM,60.1,51.1,72,29.93,10.0,WNW,6.9,-,N/A,,Overcast,300,2013-03-01 06:53:00
2:53 AM,59.0,50.0,72,29.93,10.0,WNW,8.1,-,N/A,,Overcast,300,2013-03-01 07:53:00
3:53 AM,59.0,46.9,64,29.92,10.0,NW,8.1,-,N/A,,Partly Cloudy,310,2013-03-01 08:53:00
4:53 AM,57.2,46.4,67,29.93,10.0,WNW,6.9,-,N/A,,Overcast,300,2013-03-01 09:53:00
5:53 AM,57.0,46.0,67,29.94,10.0,WNW,5.8,-,N/A,,Mostly Cloudy,300,2013-03-01 10:53:00
7:53 AM,57.9,48.0,70,29.98,10.0,WNW,4.6,-,N/A,,Overcast,300,2013-03-01 12:53:00
8:53 AM,57.2,46.4,67,29.99,10.0,NW,8.1,-,N/A,,Overcast,310,2013-03-01 13:53:00
9:53 AM,57.9,43.0,58,29.99,10.0,NW,5.8,-,N/A,,Overcast,310,2013-03-01 14:53:00
10:53 AM,60.1,39.9,47,29.99,10.0,WNW,6.9,-,N/A,,Partly Cloudy,300,2013-03-01 15:53:00
11:53 AM,62.1,37.9,41,29.98,10.0,NW,9.2,-,N/A,,Mostly Cloudy,310,2013-03-01 16:53:00
12:53 PM,60.8,37.4,42,29.96,10.0,WNW,6.9,-,N/A,,Mostly Cloudy,300,2013-03-01 17:53:00
1:53 PM,64.9,39.9,40,29.93,10.0,WNW,9.2,-,N/A,,Partly Cloudy,300,2013-03-01 18:53:00
2:53 PM,66.0,41.0,40,29.91,10.0,NW,4.6,-,N/A,,Partly Cloudy,310,2013-03-01 19:53:00
3:53 PM,64.0,39.0,40,29.92,10.0,NW,9.2,-,N/A,,Overcast,320,2013-03-01 20:53:00
4:53 PM,61.0,39.9,46,29.94,10.0,WNW,10.4,-,N/A,,Mostly Cloudy,300,2013-03-01 21:53:00
5:53 PM,59.0,39.0,48,29.96,10.0,WNW,8.1,-,N/A,,Partly Cloudy,290,2013-03-01 22:53:00
6:53 PM,57.9,39.9,51,29.96,10.0,West,4.6,-,N/A,,Partly Cloudy,270,2013-03-01 23:53:00
7:53 PM,57.0,42.1,57,29.98,10.0,Calm,Calm,-,N/A,,Clear,0,2013-03-02 00:53:00
8:53 PM,55.9,42.1,60,29.98,10.0,WSW,4.6,-,N/A,,Partly Cloudy,240,2013-03-02 01:53:00
9:53 PM,57.0,42.1,57,29.99,10.0,WSW,4.6,-,N/A,,Mostly Cloudy,240,2013-03-02 02:53:00
10:53 PM,55.9,43.0,62,29.99,10.0,WNW,10.4,-,N/A,,Overcast,290,2013-03-02 03:53:00
11:53 PM,55.9,41.0,57,29.99,10.0,WNW,8.1,-,0.00,,Overcast,300,2013-03-02 04:53:00